Londonderry, Pennsylvania
Current Conditions -  °F | °C
As of 11:12 PM on Sunday 23 Nov 2014 (Local Time) from KMDT Reporting Station
Light Rain Light Rain  
Wind Chill: 44°   Ceiling: 1200
Heat Index: 47°   Visibility: 8mi
Dew Point: 44°   Wind: 6mph
Humidity: 90%   Direction: 120°ESE
Pressure: 29.88"   Gusts: NA
Location:  40.1873°N, 76.6948°W
Report Text: KMDT 240412Z 12005KT 8SM -RA BKN012 BKN030 OVC040 08/07 A2988 RMK AO2 P0000 T00830067
Loading
Personal Weather Stations






























Interactive Weather Map New forecast layout! Learn more

10-Day Weather Forecast

Advertisements
Track Severe Weather on mobile